Manzanita, California
Current Conditions -  °F | °C
As of 12:53 PM on Sunday 23 Nov 2014 (Local Time) from KOVE Reporting Station
Clear Clear  
Wind Chill: 58°   Ceiling: Unl
Heat Index: 58°   Visibility: 10mi
Dew Point: 43°   Wind: 8mph
Humidity: 58%   Direction: 320°NW
Pressure: 30.28"   Gusts: NA
Location:  39.3475°N, 121.759°W
Report Text: KOVE 232053Z AUTO 32007KT 10SM CLR 14/06 A3028 RMK AO2 SLP257 T01440061 58023
Loading
Personal Weather Stations






























Interactive Weather Map New forecast layout! Learn more

10-Day Weather Forecast

Advertisements
Track Severe Weather on mobile